createdAt,value
2018-09-23T00:00:28.293Z,45.00
2018-09-23T00:01:28.261Z,44.27
2018-09-23T00:02:28.410Z,44.89
2018-09-23T00:03:28.248Z,44.97
2018-09-23T00:04:28.499Z,44.89
2018-09-23T00:05:28.325Z,44.47
2018-09-23T00:06:28.212Z,44.39
2018-09-23T00:07:28.336Z,43.98
2018-09-23T00:08:28.304Z,44.78
2018-09-23T00:09:28.187Z,44.89
2018-09-23T00:10:28.346Z,44.17
2018-09-23T00:11:28.539Z,44.97
2018-09-23T00:12:28.179Z,44.49
2018-09-23T00:13:28.135Z,44.27
2018-09-23T00:14:28.396Z,44.89
2018-09-23T00:15:28.124Z,44.79
2018-09-23T00:16:28.110Z,44.87
2018-09-23T00:17:28.220Z,44.57
2018-09-23T00:18:28.095Z,45.07
2018-09-23T00:19:28.179Z,45.37
2018-09-23T00:20:28.058Z,44.29
2018-09-23T00:21:28.051Z,44.89
2018-09-23T00:22:28.194Z,45.09
2018-09-23T00:23:28.050Z,45.09
2018-09-23T00:24:28.088Z,45.17
2018-09-23T00:25:28.007Z,44.97
2018-09-23T00:26:28.256Z,45.09
2018-09-23T00:27:28.166Z,44.97
2018-09-23T00:28:27.975Z,45.27
2018-09-23T00:29:27.969Z,44.87
2018-09-23T00:30:27.958Z,45.09
2018-09-23T00:31:27.939Z,45.27
2018-09-23T00:32:27.962Z,45.17
2018-09-23T00:33:27.948Z,45.27
2018-09-23T00:34:27.920Z,45.20
2018-09-23T00:35:27.901Z,45.09
2018-09-23T00:36:28.006Z,44.78
2018-09-23T00:37:27.908Z,44.70
2018-09-23T00:38:28.137Z,45.39
2018-09-23T00:39:27.855Z,45.07
2018-09-23T00:40:27.865Z,45.37
2018-09-23T00:41:28.102Z,44.67
2018-09-23T00:42:27.986Z,44.67
2018-09-23T00:43:27.813Z,44.97
2018-09-23T00:44:27.806Z,45.20
2018-09-23T00:45:27.796Z,44.89
2018-09-23T00:46:27.783Z,44.67
2018-09-23T00:47:27.830Z,45.00
2018-09-23T00:48:27.768Z,45.07
2018-09-23T00:49:27.754Z,44.87
2018-09-23T00:50:27.747Z,44.70
2018-09-23T00:51:28.116Z,44.59
2018-09-23T00:52:27.807Z,44.79
2018-09-23T00:53:27.729Z,45.20
2018-09-23T00:54:27.702Z,44.97
2018-09-23T00:55:27.688Z,44.79
2018-09-23T00:56:27.682Z,45.09
2018-09-23T00:57:27.808Z,44.70
2018-09-23T00:58:27.656Z,44.67
2018-09-23T00:59:27.655Z,44.79
2018-09-23T01:00:27.895Z,45.00
2018-09-23T01:01:27.629Z,44.67
2018-09-23T01:02:27.720Z,44.89
2018-09-23T01:03:27.611Z,44.79
2018-09-23T01:04:27.600Z,45.00
2018-09-23T01:05:27.579Z,44.59
2018-09-23T01:06:27.573Z,45.20
2018-09-23T01:07:27.854Z,45.27
2018-09-23T01:08:27.548Z,45.00
2018-09-23T01:09:27.537Z,44.59
2018-09-23T01:10:27.532Z,45.20
2018-09-23T01:11:27.513Z,45.29
2018-09-23T01:12:27.645Z,45.29
2018-09-23T01:13:27.894Z,45.00
2018-09-23T01:14:27.487Z,45.29
2018-09-23T01:15:27.501Z,45.29
2018-09-23T01:16:27.560Z,45.27
2018-09-23T01:17:27.747Z,45.29
2018-09-23T01:18:27.517Z,45.39
2018-09-23T01:19:27.446Z,45.37
2018-09-23T01:20:27.442Z,45.29
2018-09-23T01:21:27.667Z,45.59
2018-09-23T01:22:27.540Z,45.50
2018-09-23T01:23:27.648Z,45.29
2018-09-23T01:24:27.379Z,45.50
2018-09-23T01:25:27.754Z,45.50
2018-09-23T01:26:27.366Z,45.89
2018-09-23T01:27:27.371Z,45.20
2018-09-23T01:28:27.343Z,45.79
2018-09-23T01:29:27.329Z,45.59
2018-09-23T01:30:27.359Z,45.20
2018-09-23T01:31:27.299Z,45.29
2018-09-23T01:32:27.428Z,45.20
2018-09-23T01:33:27.281Z,45.20
2018-09-23T01:34:28.624Z,45.29
2018-09-23T01:35:27.529Z,45.39
2018-09-23T01:36:27.513Z,45.29
2018-09-23T01:37:27.271Z,45.09
2018-09-23T01:38:27.226Z,45.59
2018-09-23T01:39:27.251Z,45.39
2018-09-23T01:40:27.207Z,45.39
2018-09-23T01:41:27.204Z,45.50
2018-09-23T01:42:27.334Z,45.00
2018-09-23T01:43:27.175Z,45.29
2018-09-23T01:44:27.430Z,45.29
2018-09-23T01:45:27.158Z,45.20
2018-09-23T01:46:27.150Z,45.39
2018-09-23T01:47:27.150Z,45.50
2018-09-23T01:48:27.126Z,45.20
2018-09-23T01:49:27.374Z,45.50
2018-09-23T01:50:27.110Z,45.20
2018-09-23T01:51:27.175Z,45.39
2018-09-23T01:52:27.077Z,45.50
2018-09-23T01:53:27.100Z,45.39
2018-09-23T01:54:27.071Z,45.50
2018-09-23T01:55:27.078Z,45.59
2018-09-23T01:56:27.296Z,45.29
2018-09-23T01:57:27.025Z,45.29
2018-09-23T01:58:27.045Z,45.59
2018-09-23T01:59:27.005Z,45.69
2018-09-23T02:00:27.261Z,45.69
2018-09-23T02:01:26.979Z,45.79
2018-09-23T02:02:26.966Z,45.50
2018-09-23T02:03:27.269Z,45.69
2018-09-23T02:04:27.490Z,45.79
2018-09-23T02:05:26.949Z,45.79
2018-09-23T02:06:27.004Z,45.20
2018-09-23T02:07:27.174Z,45.39
2018-09-23T02:08:26.940Z,45.69
2018-09-23T02:09:26.911Z,45.29
2018-09-23T02:10:26.895Z,45.59
2018-09-23T02:11:26.903Z,45.59
2018-09-23T02:12:26.868Z,45.59
2018-09-23T02:13:27.134Z,45.50
2018-09-23T02:14:26.847Z,45.39
2018-09-23T02:15:26.935Z,45.29
2018-09-23T02:16:26.828Z,45.79
2018-09-23T02:17:27.085Z,45.69
2018-09-23T02:18:26.929Z,45.29
2018-09-23T02:19:26.796Z,45.20
2018-09-23T02:20:26.780Z,45.29
2018-09-23T02:21:26.764Z,45.39
2018-09-23T02:22:27.097Z,45.20
2018-09-23T02:23:26.780Z,45.39
2018-09-23T02:24:27.004Z,45.39
2018-09-23T02:25:26.728Z,45.20
2018-09-23T02:26:26.811Z,45.39
2018-09-23T02:27:26.705Z,45.59
2018-09-23T02:28:26.846Z,45.50
2018-09-23T02:29:26.711Z,45.79
2018-09-23T02:30:27.358Z,45.79
2018-09-23T02:31:26.659Z,45.89
2018-09-23T02:32:26.655Z,45.79
2018-09-23T02:33:26.634Z,45.39
2018-09-23T02:34:26.636Z,45.50
2018-09-23T02:35:26.679Z,45.50
2018-09-23T02:36:26.630Z,45.69
2018-09-23T02:37:26.596Z,45.69
2018-09-23T02:38:26.588Z,45.59
2018-09-23T02:39:26.610Z,45.69
2018-09-23T02:40:26.567Z,45.59
2018-09-23T02:41:26.550Z,45.72
2018-09-23T02:42:26.543Z,45.39
2018-09-23T02:43:26.537Z,45.50
2018-09-23T02:44:28.198Z,45.29
2018-09-23T02:45:26.637Z,45.59
2018-09-23T02:46:26.498Z,45.31
2018-09-23T02:47:26.801Z,46.09
2018-09-23T02:48:26.591Z,45.29
2018-09-23T02:49:26.762Z,46.09
2018-09-23T02:50:26.459Z,46.19
2018-09-23T02:51:26.571Z,45.59
2018-09-23T02:52:26.451Z,45.69
2018-09-23T02:53:26.479Z,45.69
2018-09-23T02:54:26.521Z,45.50
2018-09-23T02:55:26.402Z,45.31
2018-09-23T02:56:26.388Z,45.29
2018-09-23T02:57:26.391Z,45.50
2018-09-23T02:58:26.369Z,46.09
2018-09-23T02:59:26.392Z,46.30
2018-09-23T03:00:26.353Z,46.00
2018-09-23T03:01:26.431Z,46.01
2018-09-23T03:02:26.328Z,45.89
2018-09-23T03:03:26.658Z,46.00
2018-09-23T03:04:26.335Z,46.00
2018-09-23T03:05:26.306Z,45.89
2018-09-23T03:06:26.293Z,45.81
2018-09-23T03:07:26.277Z,46.09
2018-09-23T03:08:26.267Z,46.22
2018-09-23T03:09:26.781Z,46.22
2018-09-23T03:10:26.777Z,46.01
2018-09-23T03:11:26.232Z,46.09
2018-09-23T03:12:26.343Z,45.79
2018-09-23T03:13:26.241Z,46.00
2018-09-23T03:14:26.502Z,46.19
2018-09-23T03:15:26.191Z,46.09
2018-09-23T03:16:26.183Z,46.22
2018-09-23T03:17:26.231Z,46.22
2018-09-23T03:18:26.425Z,46.00
2018-09-23T03:19:26.204Z,46.12
2018-09-23T03:20:26.152Z,46.12
2018-09-23T03:21:26.218Z,45.92
2018-09-23T03:22:26.167Z,46.01
2018-09-23T03:23:26.106Z,45.59
2018-09-23T03:24:26.136Z,45.92
2018-09-23T03:25:26.095Z,46.22
2018-09-23T03:26:26.188Z,45.92
2018-09-23T03:27:26.324Z,45.69
2018-09-23T03:28:26.055Z,46.09
2018-09-23T03:29:26.065Z,46.22
2018-09-23T03:30:26.041Z,46.31
2018-09-23T03:31:26.034Z,46.22
2018-09-23T03:32:26.026Z,46.42
2018-09-23T03:33:25.992Z,45.92
2018-09-23T03:34:25.983Z,46.69
2018-09-23T03:35:26.093Z,46.62
2018-09-23T03:36:25.971Z,46.42
2018-09-23T03:37:26.940Z,46.69
2018-09-23T03:38:26.152Z,46.62
2018-09-23T03:39:25.991Z,46.72
2018-09-23T03:40:25.963Z,46.69
2018-09-23T03:41:25.910Z,46.09
2018-09-23T03:42:25.897Z,46.01
2018-09-23T03:43:25.893Z,46.09
2018-09-23T03:44:25.883Z,46.62
2018-09-23T03:45:25.903Z,45.89
2018-09-23T03:46:25.865Z,46.30
2018-09-23T03:47:25.981Z,46.62
2018-09-23T03:48:25.929Z,46.09
2018-09-23T03:49:25.836Z,46.31
2018-09-23T03:50:25.920Z,46.12
2018-09-23T03:51:25.968Z,45.92
2018-09-23T03:52:25.791Z,46.01
2018-09-23T03:53:25.800Z,45.92
2018-09-23T03:54:25.770Z,45.92
2018-09-23T03:55:26.046Z,46.12
2018-09-23T03:56:25.798Z,46.31
2018-09-23T03:57:25.868Z,45.92
2018-09-23T03:58:25.729Z,45.79
2018-09-23T03:59:25.721Z,45.89
2018-09-23T04:00:25.745Z,46.09
2018-09-23T04:01:25.810Z,45.89
2018-09-23T04:02:25.692Z,45.89
2018-09-23T04:03:25.739Z,45.79
2018-09-23T04:04:25.678Z,45.92
2018-09-23T04:05:25.692Z,45.89
2018-09-23T04:06:25.648Z,45.81
2018-09-23T04:07:25.642Z,46.00
2018-09-23T04:08:25.884Z,45.92
2018-09-23T04:09:25.618Z,45.92
2018-09-23T04:10:25.123Z,45.81
2018-09-23T04:11:25.630Z,45.81
2018-09-23T04:12:25.686Z,46.00
2018-09-23T04:13:25.575Z,45.92
2018-09-23T04:14:25.563Z,45.92
2018-09-23T04:15:25.818Z,45.81
2018-09-23T04:16:26.204Z,45.92
2018-09-23T04:17:25.534Z,45.72
2018-09-23T04:18:25.775Z,45.72
2018-09-23T04:19:25.504Z,45.62
2018-09-23T04:20:25.495Z,45.92
2018-09-23T04:21:25.610Z,46.12
2018-09-23T04:22:25.491Z,45.72
2018-09-23T04:23:25.467Z,45.92
2018-09-23T04:24:25.732Z,45.72
2018-09-23T04:25:25.521Z,45.72
2018-09-23T04:26:25.752Z,46.01
2018-09-23T04:27:25.686Z,46.12
2018-09-23T04:28:25.405Z,46.01
2018-09-23T04:29:25.523Z,46.01
2018-09-23T04:30:25.396Z,46.22
2018-09-23T04:31:25.699Z,46.12
2018-09-23T04:32:25.744Z,46.12
2018-09-23T04:33:25.350Z,46.12
2018-09-23T04:34:25.340Z,46.12
2018-09-23T04:35:25.330Z,45.81
2018-09-23T04:36:25.361Z,46.12
2018-09-23T04:37:25.310Z,46.22
2018-09-23T04:38:25.374Z,45.72
2018-09-23T04:39:25.316Z,46.12
2018-09-23T04:40:25.285Z,45.81
2018-09-23T04:41:25.296Z,45.51
2018-09-23T04:42:25.271Z,45.72
2018-09-23T04:43:25.249Z,45.62
2018-09-23T04:44:25.242Z,45.81
2018-09-23T04:45:25.489Z,46.22
2018-09-23T04:46:25.612Z,46.22
2018-09-23T04:47:25.204Z,46.01
2018-09-23T04:48:25.207Z,46.31
2018-09-23T04:49:25.181Z,46.22
2018-09-23T04:50:25.440Z,46.42
2018-09-23T04:51:25.187Z,46.31
2018-09-23T04:52:25.153Z,46.62
2018-09-23T04:53:25.532Z,46.12
2018-09-23T04:54:25.139Z,46.31
2018-09-23T04:55:25.287Z,46.31
2018-09-23T04:56:25.106Z,46.72
2018-09-23T04:57:25.113Z,46.72
2018-09-23T04:58:25.084Z,46.72
2018-09-23T04:59:25.080Z,46.72
2018-09-23T05:00:25.333Z,46.72
2018-09-23T05:01:25.188Z,46.42
2018-09-23T05:02:25.364Z,46.42
2018-09-23T05:03:25.049Z,46.72
2018-09-23T05:04:25.028Z,46.31
2018-09-23T05:05:25.017Z,46.72
2018-09-23T05:06:25.006Z,46.72
2018-09-23T05:07:25.284Z,46.42
2018-09-23T05:08:25.121Z,46.42
2018-09-23T05:09:24.974Z,46.62
2018-09-23T05:10:25.485Z,46.51
2018-09-23T05:11:24.945Z,46.42
2018-09-23T05:12:24.971Z,46.51
2018-09-23T05:13:24.929Z,46.81
2018-09-23T05:14:25.194Z,46.51
2018-09-23T05:15:24.916Z,46.81
2018-09-23T05:16:24.897Z,46.51
2018-09-23T05:17:25.055Z,46.51
2018-09-23T05:18:24.872Z,46.42
2018-09-23T05:19:24.869Z,46.62
2018-09-23T05:20:24.849Z,46.12
2018-09-23T05:21:24.841Z,46.62
2018-09-23T05:22:24.981Z,46.51
2018-09-23T05:23:25.102Z,46.42
2018-09-23T05:24:24.812Z,46.62
2018-09-23T05:25:24.905Z,46.62
2018-09-23T05:26:25.053Z,46.42
2018-09-23T05:27:24.924Z,46.12
2018-09-23T05:28:24.767Z,46.31
2018-09-23T05:29:25.020Z,46.51
2018-09-23T05:30:24.745Z,46.31
2018-09-23T05:31:24.732Z,46.62
2018-09-23T05:32:24.755Z,46.42
2018-09-23T05:33:26.069Z,46.42
2018-09-23T05:34:24.965Z,46.22
2018-09-23T05:35:24.751Z,46.62
2018-09-23T05:36:24.679Z,46.12
2018-09-23T05:37:24.717Z,46.51
2018-09-23T05:38:24.933Z,46.42
2018-09-23T05:39:24.647Z,46.42
2018-09-23T05:40:24.643Z,46.42
2018-09-23T05:41:24.669Z,46.42
2018-09-23T05:42:24.759Z,46.42
2018-09-23T05:43:24.608Z,46.31
2018-09-23T05:44:24.689Z,46.51
2018-09-23T05:45:24.589Z,46.42
2018-09-23T05:46:24.575Z,46.72
2018-09-23T05:47:24.873Z,46.62
2018-09-23T05:48:24.558Z,46.62
2018-09-23T05:49:24.545Z,46.72
2018-09-23T05:50:24.671Z,46.81
2018-09-23T05:51:24.526Z,46.62
2018-09-23T05:52:24.545Z,46.51
2018-09-23T05:53:24.500Z,46.81
2018-09-23T05:54:24.501Z,46.72
2018-09-23T05:55:24.474Z,46.62
2018-09-23T05:56:24.740Z,46.62
2018-09-23T05:57:24.498Z,46.62
2018-09-23T05:58:24.450Z,46.51
2018-09-23T05:59:24.558Z,46.42
2018-09-23T06:00:24.431Z,46.51
2018-09-23T06:01:24.411Z,46.81
2018-09-23T06:02:24.494Z,46.62
2018-09-23T06:03:24.405Z,46.62
2018-09-23T06:04:24.648Z,47.02
2018-09-23T06:05:24.376Z,46.51
2018-09-23T06:06:24.358Z,46.51
2018-09-23T06:07:24.381Z,46.51
2018-09-23T06:08:24.450Z,47.02
2018-09-23T06:09:24.385Z,46.80
2018-09-23T06:10:24.332Z,46.81
2018-09-23T06:11:24.677Z,46.72
2018-09-23T06:12:24.568Z,46.72
2018-09-23T06:13:24.291Z,46.42
2018-09-23T06:14:24.541Z,46.92
2018-09-23T06:15:24.261Z,46.51
2018-09-23T06:16:24.349Z,46.62
2018-09-23T06:17:24.355Z,46.42
2018-09-23T06:18:24.469Z,46.92
2018-09-23T06:19:24.220Z,47.11
2018-09-23T06:20:24.933Z,47.02
2018-09-23T06:21:24.212Z,46.51
2018-09-23T06:22:24.194Z,46.81
2018-09-23T06:23:24.214Z,46.92
2018-09-23T06:24:24.433Z,46.62
2018-09-23T06:25:24.248Z,46.92
2018-09-23T06:26:24.160Z,46.62
2018-09-23T06:27:24.198Z,46.62
2018-09-23T06:28:24.292Z,46.92
2018-09-23T06:29:24.281Z,46.72
2018-09-23T06:30:24.106Z,46.72
2018-09-23T06:31:24.093Z,46.92
2018-09-23T06:32:24.085Z,46.81
2018-09-23T06:33:24.374Z,46.72
2018-09-23T06:34:24.180Z,47.11
2018-09-23T06:35:24.321Z,46.62
2018-09-23T06:36:24.403Z,46.72
2018-09-23T06:37:24.032Z,46.92
2018-09-23T06:38:24.060Z,46.72
2018-09-23T06:39:24.015Z,46.62
2018-09-23T06:40:24.264Z,46.92
2018-09-23T06:41:23.990Z,47.02
2018-09-23T06:42:24.250Z,46.62
2018-09-23T06:43:24.278Z,46.92
2018-09-23T06:44:23.959Z,46.62
2018-09-23T06:45:23.945Z,46.92
2018-09-23T06:46:24.071Z,47.02
2018-09-23T06:47:24.189Z,46.92
2018-09-23T06:48:23.941Z,46.92
2018-09-23T06:49:24.025Z,46.51
2018-09-23T06:50:24.003Z,46.92
2018-09-23T06:51:24.072Z,46.81
2018-09-23T06:52:23.865Z,46.92
2018-09-23T06:53:24.144Z,46.81
2018-09-23T06:54:23.951Z,46.81
2018-09-23T06:55:24.235Z,46.99
2018-09-23T06:56:23.825Z,46.81
2018-09-23T06:57:23.889Z,46.62
2018-09-23T06:58:23.831Z,46.81
2018-09-23T06:59:23.792Z,46.62
2018-09-23T07:00:24.222Z,46.62
2018-09-23T07:01:23.855Z,46.62
2018-09-23T07:02:23.771Z,46.81
2018-09-23T07:03:23.858Z,46.59
2018-09-23T07:04:23.769Z,46.81
2018-09-23T07:05:23.996Z,46.99
2018-09-23T07:06:23.975Z,46.81
2018-09-23T07:07:24.087Z,46.81
2018-09-23T07:08:23.755Z,46.81
2018-09-23T07:09:23.712Z,46.81
2018-09-23T07:10:23.761Z,46.81
2018-09-23T07:11:23.772Z,46.59
2018-09-23T07:12:23.920Z,46.81
2018-09-23T07:13:23.754Z,47.02
2018-09-23T07:14:23.697Z,46.81
2018-09-23T07:15:23.654Z,47.09
2018-09-23T07:16:23.892Z,46.62
2018-09-23T07:17:23.600Z,46.99
2018-09-23T07:18:23.885Z,46.80
2018-09-23T07:19:23.863Z,47.19
2018-09-23T07:20:23.574Z,46.59
2018-09-23T07:21:23.978Z,46.80
2018-09-23T07:22:23.551Z,47.02
2018-09-23T07:23:23.645Z,46.80
2018-09-23T07:24:23.898Z,46.81
2018-09-23T07:25:23.887Z,46.30
2018-09-23T07:26:23.635Z,46.50
2018-09-23T07:27:23.759Z,46.80
2018-09-23T07:28:23.481Z,46.80
2018-09-23T07:29:23.483Z,46.59
2018-09-23T07:30:23.711Z,46.59
2018-09-23T07:31:23.453Z,46.89
2018-09-23T07:32:23.460Z,46.89
2018-09-23T07:33:23.494Z,46.99
2018-09-23T07:34:23.503Z,46.89
2018-09-23T07:35:23.424Z,46.89
2018-09-23T07:36:23.396Z,46.99
2018-09-23T07:37:25.107Z,46.59
2018-09-23T07:38:23.374Z,46.89
2018-09-23T07:39:23.504Z,46.59
2018-09-23T07:40:23.873Z,47.09
2018-09-23T07:41:23.438Z,46.80
2018-09-23T07:42:23.349Z,46.89
2018-09-23T07:43:23.439Z,46.80
2018-09-23T07:44:23.593Z,46.89
2018-09-23T07:45:23.438Z,46.59
2018-09-23T07:46:23.345Z,46.89
2018-09-23T07:47:23.294Z,46.69
2018-09-23T07:48:23.268Z,46.80
2018-09-23T07:49:23.295Z,46.99
2018-09-23T07:50:23.248Z,46.80
2018-09-23T07:51:23.237Z,46.80
2018-09-23T07:52:23.337Z,46.80
2018-09-23T07:53:23.515Z,46.69
2018-09-23T07:54:23.347Z,46.59
2018-09-23T07:55:23.753Z,46.89
2018-09-23T07:56:23.278Z,46.80
2018-09-23T07:57:23.184Z,46.69
2018-09-23T07:58:23.165Z,46.69
2018-09-23T07:59:23.185Z,46.59
2018-09-23T08:00:23.260Z,46.80
2018-09-23T08:01:23.134Z,46.59
2018-09-23T08:02:23.311Z,46.69
2018-09-23T08:03:23.153Z,46.77
2018-09-23T08:04:23.133Z,46.80
2018-09-23T08:05:23.105Z,46.69
2018-09-23T08:06:23.739Z,46.77
2018-09-23T08:07:23.382Z,46.87
2018-09-23T08:08:23.083Z,46.87
2018-09-23T08:09:23.045Z,46.80
2018-09-23T08:10:23.275Z,46.57
2018-09-23T08:11:23.084Z,46.57
2018-09-23T08:12:23.091Z,46.77
2018-09-23T08:13:23.029Z,46.67
2018-09-23T08:14:23.486Z,46.80
2018-09-23T08:15:23.103Z,46.99
2018-09-23T08:16:23.283Z,46.89
2018-09-23T08:17:23.248Z,46.89
2018-09-23T08:18:22.952Z,46.97
2018-09-23T08:19:23.299Z,46.99
2018-09-23T08:20:23.095Z,46.67
2018-09-23T08:21:23.014Z,46.87
2018-09-23T08:22:22.904Z,46.59
2018-09-23T08:23:23.695Z,46.59
2018-09-23T08:24:22.899Z,46.69
2018-09-23T08:25:22.982Z,46.87
2018-09-23T08:26:23.394Z,46.57
2018-09-23T08:27:22.859Z,46.77
2018-09-23T08:28:22.840Z,46.57
2018-09-23T08:29:23.103Z,46.57
2018-09-23T08:30:23.409Z,46.77
2018-09-23T08:31:23.422Z,46.57
2018-09-23T08:32:23.630Z,46.77
2018-09-23T08:33:23.037Z,46.77
2018-09-23T08:34:22.777Z,46.97
2018-09-23T08:35:25.341Z,46.87
2018-09-23T08:36:22.842Z,46.77
2018-09-23T08:37:22.904Z,46.87
2018-09-23T08:38:22.758Z,46.87
2018-09-23T08:39:22.811Z,46.57
2018-09-23T08:40:22.776Z,46.87
2018-09-23T08:41:22.756Z,46.77
2018-09-23T08:42:22.795Z,46.97
2018-09-23T08:43:22.808Z,46.87
2018-09-23T08:44:23.200Z,46.55
2018-09-23T08:45:22.664Z,46.95
2018-09-23T08:46:22.678Z,46.77
2018-09-23T08:47:22.904Z,46.87
2018-09-23T08:48:22.640Z,46.97
2018-09-23T08:49:22.615Z,46.77
2018-09-23T08:50:22.626Z,46.75
2018-09-23T08:51:22.690Z,46.95
2018-09-23T08:52:22.731Z,46.57
2018-09-23T08:53:22.701Z,46.75
2018-09-23T08:54:22.570Z,46.95
2018-09-23T08:55:22.553Z,46.67
2018-09-23T08:56:22.658Z,46.95
2018-09-23T08:57:22.855Z,46.95
2018-09-23T08:58:22.647Z,46.95
2018-09-23T08:59:22.508Z,46.55
2018-09-23T09:00:22.497Z,46.75
2018-09-23T09:01:22.485Z,46.75
2018-09-23T09:02:22.530Z,46.55
2018-09-23T09:03:22.472Z,46.65
2018-09-23T09:04:22.597Z,46.55
2018-09-23T09:05:22.463Z,46.55
2018-09-23T09:06:22.434Z,46.65
2018-09-23T09:07:22.523Z,46.95
2018-09-23T09:08:22.803Z,46.55
2018-09-23T09:09:22.510Z,46.95
2018-09-23T09:10:22.392Z,46.95
2018-09-23T09:11:22.388Z,46.55
2018-09-23T09:12:22.663Z,46.65
2018-09-23T09:13:22.476Z,46.75
2018-09-23T09:14:22.686Z,47.05
2018-09-23T09:15:22.440Z,46.35
2018-09-23T09:16:22.337Z,46.85
2018-09-23T09:17:22.351Z,46.95
2018-09-23T09:18:22.517Z,46.55
2018-09-23T09:19:22.305Z,46.45
2018-09-23T09:20:22.755Z,46.75
2018-09-23T09:21:22.417Z,46.65
2018-09-23T09:22:22.292Z,46.65
2018-09-23T09:23:22.265Z,46.55
2018-09-23T09:24:22.389Z,46.95
2018-09-23T09:25:22.356Z,46.75
2018-09-23T09:26:22.218Z,46.65
2018-09-23T09:27:22.360Z,46.05
2018-09-23T09:28:22.319Z,47.05
2018-09-23T09:29:22.602Z,46.45
2018-09-23T09:30:22.346Z,46.35
2018-09-23T09:31:22.513Z,46.75
2018-09-23T09:32:22.860Z,46.55
2018-09-23T09:33:22.246Z,46.95
2018-09-23T09:34:22.141Z,46.75
2018-09-23T09:35:22.480Z,46.75
2018-09-23T09:36:22.126Z,46.55
2018-09-23T09:37:22.327Z,47.05
2018-09-23T09:38:22.253Z,46.95
2018-09-23T09:39:22.091Z,46.65
2018-09-23T09:40:22.196Z,46.65
2018-09-23T09:41:22.070Z,46.75
2018-09-23T09:42:22.085Z,46.55
2018-09-23T09:43:22.071Z,46.65
2018-09-23T09:44:22.077Z,46.67
2018-09-23T09:45:22.642Z,46.65
2018-09-23T09:46:22.012Z,46.95
2018-09-23T09:47:22.074Z,47.27
2018-09-23T09:48:22.012Z,47.95
2018-09-23T09:49:22.093Z,47.85
2018-09-23T09:50:22.038Z,47.55
2018-09-23T09:51:21.960Z,47.27
2018-09-23T09:52:21.973Z,47.35
2018-09-23T09:53:21.940Z,47.87
2018-09-23T09:54:21.999Z,47.45
2018-09-23T09:55:21.933Z,47.47
2018-09-23T09:56:21.915Z,47.85
2018-09-23T09:57:21.940Z,47.65
2018-09-23T09:58:21.946Z,47.55
2018-09-23T09:59:21.888Z,47.95
2018-09-23T10:00:21.940Z,47.45
2018-09-23T10:01:21.849Z,47.57
2018-09-23T10:02:21.973Z,47.75
2018-09-23T10:03:22.125Z,47.85
2018-09-23T10:04:21.821Z,47.75
2018-09-23T10:05:22.323Z,47.35
2018-09-23T10:06:21.921Z,47.85
2018-09-23T10:07:22.894Z,47.65
2018-09-23T10:08:21.773Z,47.75
2018-09-23T10:09:22.025Z,47.65
2018-09-23T10:10:21.760Z,47.75
2018-09-23T10:11:21.822Z,47.25
2018-09-23T10:12:21.763Z,47.65
2018-09-23T10:13:21.743Z,47.55
2018-09-23T10:14:22.045Z,47.55
2018-09-23T10:15:21.962Z,47.55
2018-09-23T10:16:21.687Z,47.65
2018-09-23T10:17:22.085Z,47.65
2018-09-23T10:18:22.381Z,47.65
2018-09-23T10:19:21.652Z,48.05
2018-09-23T10:20:21.795Z,47.65
2018-09-23T10:21:21.759Z,47.85
2018-09-23T10:22:21.772Z,48.05
2018-09-23T10:23:21.767Z,47.75
2018-09-23T10:24:21.988Z,47.35
2018-09-23T10:25:22.187Z,48.05
2018-09-23T10:26:21.696Z,47.95
2018-09-23T10:27:21.870Z,48.05
2018-09-23T10:28:21.672Z,47.95
2018-09-23T10:29:21.575Z,47.65
2018-09-23T10:30:21.653Z,47.85
2018-09-23T10:31:21.905Z,48.05
2018-09-23T10:32:21.548Z,47.95
2018-09-23T10:33:21.875Z,47.95
2018-09-23T10:34:21.608Z,47.75
2018-09-23T10:35:21.617Z,47.95
2018-09-23T10:36:21.580Z,47.95
2018-09-23T10:37:21.501Z,47.95
2018-09-23T10:38:21.461Z,47.95
2018-09-23T10:39:21.748Z,48.05
2018-09-23T10:40:21.570Z,47.75
2018-09-23T10:41:22.187Z,47.92
2018-09-23T10:42:21.405Z,47.95
2018-09-23T10:43:21.435Z,47.95
2018-09-23T10:44:24.545Z,47.85
2018-09-23T10:45:21.956Z,47.75
2018-09-23T10:46:21.638Z,47.95
2018-09-23T10:47:21.432Z,48.14
2018-09-23T10:48:21.417Z,48.25
2018-09-23T10:49:21.508Z,47.65
2018-09-23T10:50:21.337Z,48.25
2018-09-23T10:51:21.316Z,48.14
2018-09-23T10:52:21.309Z,48.05
2018-09-23T10:53:21.433Z,48.05
2018-09-23T10:54:21.607Z,47.95
2018-09-23T10:55:21.802Z,48.05
2018-09-23T10:56:21.412Z,47.85
2018-09-23T10:57:21.317Z,48.35
2018-09-23T10:58:21.282Z,48.35
2018-09-23T10:59:21.334Z,48.25
2018-09-23T11:00:21.335Z,48.65
2018-09-23T11:01:21.206Z,48.14
2018-09-23T11:02:21.194Z,48.35
2018-09-23T11:03:21.322Z,48.75
2018-09-23T11:04:21.273Z,48.45
2018-09-23T11:05:21.249Z,48.45
2018-09-23T11:06:21.152Z,48.55
2018-09-23T11:07:21.191Z,48.55
2018-09-23T11:08:21.432Z,48.14
2018-09-23T11:09:23.190Z,48.05
2018-09-23T11:10:21.224Z,48.25
2018-09-23T11:11:21.210Z,48.14
2018-09-23T11:12:21.092Z,48.45
2018-09-23T11:13:21.284Z,48.45
2018-09-23T11:14:21.080Z,48.65
2018-09-23T11:15:21.173Z,48.65
2018-09-23T11:16:21.046Z,48.55
2018-09-23T11:17:21.315Z,48.45
2018-09-23T11:18:21.124Z,48.65
2018-09-23T11:19:21.022Z,48.55
2018-09-23T11:20:21.008Z,48.65
2018-09-23T11:21:22.046Z,48.45
2018-09-23T11:22:20.986Z,48.55
2018-09-23T11:23:21.191Z,48.75
2018-09-23T11:24:20.964Z,48.55
2018-09-23T11:25:20.983Z,48.55
2018-09-23T11:26:21.040Z,48.57
2018-09-23T11:27:20.939Z,48.87
2018-09-23T11:28:21.024Z,48.57
2018-09-23T11:29:20.907Z,48.65
2018-09-23T11:30:20.910Z,48.67
2018-09-23T11:31:20.889Z,48.77
2018-09-23T11:32:21.154Z,48.94
2018-09-23T11:33:21.012Z,48.55
2018-09-23T11:34:20.956Z,49.07
2018-09-23T11:35:21.000Z,49.07
2018-09-23T11:36:20.963Z,48.94
2018-09-23T11:37:20.961Z,48.57
2018-09-23T11:38:20.863Z,48.67
2018-09-23T11:39:20.899Z,48.65
2018-09-23T11:40:21.047Z,48.55
2018-09-23T11:41:21.147Z,48.47
2018-09-23T11:42:20.820Z,48.65
2018-09-23T11:43:20.788Z,48.77
2018-09-23T11:44:20.856Z,48.25
2018-09-23T11:45:20.862Z,48.57
2018-09-23T11:46:20.738Z,48.65
2018-09-23T11:47:20.723Z,48.45
2018-09-23T11:48:20.825Z,48.55
2018-09-23T11:49:20.712Z,48.37
2018-09-23T11:50:20.680Z,48.45
2018-09-23T11:51:20.673Z,48.45
2018-09-23T11:52:20.793Z,48.57
2018-09-23T11:53:20.664Z,48.45
2018-09-23T11:54:20.758Z,48.65
2018-09-23T11:55:20.961Z,48.67
2018-09-23T11:56:20.729Z,48.65
2018-09-23T11:57:20.613Z,48.47
2018-09-23T11:58:20.621Z,48.45
2018-09-23T11:59:20.725Z,48.47
2018-09-23T12:00:20.617Z,48.47
2018-09-23T12:01:20.690Z,48.55
2018-09-23T12:02:20.694Z,48.45
2018-09-23T12:03:21.192Z,48.85
2018-09-23T12:04:20.679Z,48.55
2018-09-23T12:05:20.645Z,48.75
2018-09-23T12:06:20.516Z,48.47
2018-09-23T12:07:20.621Z,48.45
2018-09-23T12:08:22.504Z,48.45
2018-09-23T12:09:20.487Z,48.77
2018-09-23T12:10:20.544Z,48.55
2018-09-23T12:11:20.458Z,48.57
2018-09-23T12:12:20.446Z,48.47
2018-09-23T12:13:20.584Z,48.57
2018-09-23T12:14:20.431Z,48.67
2018-09-23T12:15:20.414Z,48.57
2018-09-23T12:16:20.404Z,48.47
2018-09-23T12:17:20.496Z,48.57
2018-09-23T12:18:20.395Z,48.37
2018-09-23T12:19:20.484Z,48.37
2018-09-23T12:20:20.379Z,48.27
2018-09-23T12:21:22.328Z,48.47
2018-09-23T12:22:20.452Z,48.57
2018-09-23T12:23:20.606Z,48.37
2018-09-23T12:24:20.628Z,48.37
2018-09-23T12:25:20.329Z,48.37
2018-09-23T12:26:20.395Z,48.57
2018-09-23T12:27:20.416Z,48.37
2018-09-23T12:28:20.397Z,48.57
2018-09-23T12:29:20.336Z,49.17
2018-09-23T12:30:20.256Z,49.07
2018-09-23T12:31:20.253Z,48.99
2018-09-23T12:32:20.365Z,49.27
2018-09-23T12:33:20.278Z,49.07
2018-09-23T12:34:20.228Z,48.97
2018-09-23T12:35:20.203Z,49.19
2018-09-23T12:36:20.463Z,48.99
2018-09-23T12:37:20.283Z,49.09
2018-09-23T12:38:20.448Z,48.97
2018-09-23T12:39:21.123Z,48.99
2018-09-23T12:40:20.418Z,49.17
2018-09-23T12:41:20.207Z,49.09
2018-09-23T12:42:20.234Z,48.97
2018-09-23T12:43:20.214Z,49.09
2018-09-23T12:44:20.106Z,48.90
2018-09-23T12:45:20.095Z,48.87
2018-09-23T12:46:20.089Z,48.99
2018-09-23T12:47:20.139Z,48.97
2018-09-23T12:48:20.181Z,48.99
2018-09-23T12:49:20.195Z,48.99
2018-09-23T12:50:20.309Z,48.69
2018-09-23T12:51:20.364Z,48.97
2018-09-23T12:52:20.147Z,48.99